X  CloseMetar Aviation Weather Data     YMAV Avalon Airport

Temperature

9°C Temperature

8°C Dewpoint

94% Humidity



Wind

 8 KM/H

 5 MPH

 2 M/S

 4 KTS



190°
Due South
Current Conditions

Clear Clear
Pressure 1025.92 (hPa) - 30.3 (in)
Visibility 6.2 (mi) - 10 (km)
Airport
Airport-code YMAV

Location Avalon Airport 14 (km)

Metar:
YMAV 200930Z AUTO 19004KT 9999 // NCD 09/08 Q1026 RF00.0/000.0

Time: 20-06-2021 19:30